createdAt,value
2022-12-22T00:02:55.114Z,60.17
2022-12-22T00:06:19.384Z,62.92
2022-12-22T00:09:43.451Z,63.67
2022-12-22T00:13:08.173Z,61.55
2022-12-22T00:16:32.175Z,62.97
2022-12-22T00:19:56.222Z,65.88
2022-12-22T00:23:20.245Z,61.10
2022-12-22T00:26:45.151Z,61.20
2022-12-22T00:30:08.984Z,58.13
2022-12-22T00:33:35.722Z,63.83
2022-12-22T00:36:59.694Z,72.05
2022-12-22T00:40:45.880Z,62.80
2022-12-22T00:44:10.594Z,64.40
2022-12-22T00:47:48.218Z,62.63
2022-12-22T00:51:12.336Z,64.28
2022-12-22T00:54:37.980Z,66.15
2022-12-22T00:58:02.502Z,69.07
2022-12-22T01:01:27.531Z,68.38
2022-12-22T01:04:51.306Z,62.25
2022-12-22T01:08:15.570Z,65.90
2022-12-22T01:11:39.609Z,69.05
2022-12-22T01:15:03.615Z,74.15
2022-12-22T01:18:27.618Z,64.50
2022-12-22T01:21:51.513Z,65.85
2022-12-22T01:25:15.513Z,65.15
2022-12-22T01:28:39.666Z,72.30
2022-12-22T01:32:04.521Z,72.95
2022-12-22T01:35:41.117Z,70.15
2022-12-22T01:39:05.212Z,67.05
2022-12-22T01:42:31.417Z,66.75
2022-12-22T01:45:56.048Z,74.00
2022-12-22T01:49:20.247Z,73.50
2022-12-22T01:52:53.899Z,73.07
2022-12-22T01:56:19.068Z,67.35
2022-12-22T01:59:42.953Z,65.90
2022-12-22T02:03:06.930Z,63.30
2022-12-22T02:06:39.414Z,64.75
2022-12-22T02:10:13.745Z,74.47
2022-12-22T02:14:04.688Z,71.25
2022-12-22T02:17:36.587Z,64.93
2022-12-22T02:21:14.750Z,65.10
2022-12-22T02:25:00.615Z,70.00
2022-12-22T02:28:25.519Z,69.13
2022-12-22T02:31:59.192Z,63.60
2022-12-22T02:35:31.206Z,64.38
2022-12-22T02:39:10.429Z,68.07
2022-12-22T02:43:12.591Z,65.32
2022-12-22T02:47:05.333Z,66.13
2022-12-22T02:50:53.455Z,68.15
2022-12-22T02:54:18.514Z,68.15
2022-12-22T02:57:42.731Z,65.07
2022-12-22T03:01:06.561Z,68.75
2022-12-22T03:04:30.679Z,66.78
2022-12-22T03:07:55.643Z,64.95
2022-12-22T03:11:19.457Z,72.72
2022-12-22T03:14:43.503Z,65.05
2022-12-22T03:18:07.414Z,67.45
2022-12-22T03:21:31.232Z,69.57
2022-12-22T03:24:55.070Z,63.17
2022-12-22T03:28:06.258Z,63.55
2022-12-22T03:31:12.552Z,64.53
2022-12-22T03:34:18.256Z,61.88
2022-12-22T03:37:24.309Z,64.72
2022-12-22T03:40:31.898Z,62.90
2022-12-22T03:43:55.931Z,67.78
2022-12-22T03:47:01.391Z,61.88
2022-12-22T03:50:07.761Z,64.50
2022-12-22T03:53:13.602Z,60.42
2022-12-22T03:56:19.262Z,65.78
2022-12-22T03:59:25.027Z,60.50
2022-12-22T04:02:30.746Z,69.20
2022-12-22T04:05:36.428Z,66.63
2022-12-22T04:08:42.421Z,60.72
2022-12-22T04:12:06.402Z,63.22
2022-12-22T04:15:12.125Z,65.00
2022-12-22T04:18:17.924Z,58.80
2022-12-22T04:21:23.439Z,65.88
2022-12-22T04:24:29.024Z,69.18
2022-12-22T04:27:34.365Z,65.93
2022-12-22T04:30:40.262Z,60.17
2022-12-22T04:33:46.395Z,64.32
2022-12-22T04:36:52.311Z,69.60
2022-12-22T04:39:58.446Z,59.63
2022-12-22T04:43:04.341Z,59.67
2022-12-22T04:46:09.919Z,62.35
2022-12-22T04:49:15.610Z,76.50
2022-12-22T04:52:21.157Z,72.43
2022-12-22T04:55:27.218Z,67.50
2022-12-22T04:58:34.292Z,72.47
2022-12-22T05:01:40.230Z,67.13
2022-12-22T05:04:45.961Z,70.25
2022-12-22T05:07:51.304Z,58.65
2022-12-22T05:10:56.695Z,64.35
2022-12-22T05:14:07.068Z,70.00
2022-12-22T05:17:13.243Z,64.23
2022-12-22T05:20:19.129Z,61.05
2022-12-22T05:23:24.326Z,61.28
2022-12-22T05:26:29.845Z,63.83
2022-12-22T05:29:35.637Z,76.03
2022-12-22T05:32:40.937Z,63.42
2022-12-22T05:35:47.231Z,60.70
2022-12-22T05:38:53.214Z,59.88
2022-12-22T05:41:58.626Z,65.03
2022-12-22T05:45:05.908Z,58.60
2022-12-22T05:48:12.333Z,65.40
2022-12-22T05:51:17.838Z,64.30
2022-12-22T05:54:23.490Z,61.63
2022-12-22T05:57:29.591Z,65.18
2022-12-22T06:00:35.047Z,68.30
2022-12-22T06:03:40.396Z,67.65
2022-12-22T06:06:46.807Z,66.10
2022-12-22T06:09:52.911Z,59.63
2022-12-22T06:12:58.469Z,63.78
2022-12-22T06:16:04.675Z,66.07
2022-12-22T06:19:10.912Z,62.72
2022-12-22T06:22:17.103Z,67.78
2022-12-22T06:25:22.879Z,68.75
2022-12-22T06:28:29.433Z,70.93
2022-12-22T06:31:35.377Z,71.00
2022-12-22T06:34:41.206Z,66.30
2022-12-22T06:37:46.758Z,62.30
2022-12-22T06:40:52.165Z,65.38
2022-12-22T06:43:57.535Z,65.50
2022-12-22T06:47:03.104Z,71.10
2022-12-22T06:50:09.757Z,77.22
2022-12-22T06:53:15.747Z,74.63
2022-12-22T06:56:21.948Z,76.30
2022-12-22T06:59:27.378Z,76.75
2022-12-22T07:02:33.047Z,83.43
2022-12-22T07:05:38.921Z,87.53
2022-12-22T07:08:45.970Z,84.65
2022-12-22T07:11:51.531Z,88.18
2022-12-22T07:14:57.386Z,85.70
2022-12-22T07:18:02.922Z,96.47
2022-12-22T07:21:12.012Z,98.28
2022-12-22T07:24:23.469Z,97.35
2022-12-22T07:27:29.177Z,101.18
2022-12-22T07:30:37.136Z,102.53
2022-12-22T07:33:43.187Z,98.20
2022-12-22T07:36:48.990Z,94.18
2022-12-22T07:39:54.749Z,92.03
2022-12-22T07:43:01.124Z,97.38
2022-12-22T07:46:07.087Z,93.22
2022-12-22T07:49:36.444Z,99.18
2022-12-22T07:52:42.282Z,93.78
2022-12-22T07:55:48.078Z,91.22
2022-12-22T07:58:53.779Z,93.95
2022-12-22T08:01:59.943Z,89.53
2022-12-22T08:05:06.391Z,76.85
2022-12-22T08:08:12.413Z,80.90
2022-12-22T08:11:18.085Z,82.65
2022-12-22T08:14:23.953Z,87.07
2022-12-22T08:17:30.133Z,85.32
2022-12-22T08:20:35.743Z,78.47
2022-12-22T08:23:41.750Z,87.15
2022-12-22T08:26:52.887Z,75.75
2022-12-22T08:30:01.035Z,88.38
2022-12-22T08:33:06.386Z,80.65
2022-12-22T08:36:13.465Z,79.93
2022-12-22T08:39:22.852Z,86.95
2022-12-22T08:42:29.180Z,85.00
2022-12-22T08:45:34.662Z,85.57
2022-12-22T08:48:40.178Z,90.60
2022-12-22T08:51:47.160Z,81.15
2022-12-22T08:54:52.534Z,74.35
2022-12-22T08:57:58.249Z,75.82
2022-12-22T09:01:03.908Z,79.20
2022-12-22T09:04:09.412Z,77.30
2022-12-22T09:07:15.398Z,80.72
2022-12-22T09:10:20.821Z,73.15
2022-12-22T09:13:26.422Z,68.90
2022-12-22T09:16:33.824Z,74.93
2022-12-22T09:19:39.247Z,69.40
2022-12-22T09:22:45.148Z,76.60
2022-12-22T09:25:50.827Z,67.45
2022-12-22T09:28:57.082Z,68.28
2022-12-22T09:32:02.617Z,70.90
2022-12-22T09:35:08.322Z,67.80
2022-12-22T09:38:13.837Z,75.18
2022-12-22T09:41:27.458Z,61.95
2022-12-22T09:44:32.901Z,63.13
2022-12-22T09:47:40.585Z,61.45
2022-12-22T09:50:46.397Z,64.80
2022-12-22T09:54:00.615Z,63.88
2022-12-22T09:57:12.847Z,65.00
2022-12-22T10:00:22.213Z,65.75
2022-12-22T10:03:35.398Z,61.65
2022-12-22T10:07:08.719Z,71.30
2022-12-22T10:10:28.531Z,64.70
2022-12-22T10:13:35.211Z,70.95
2022-12-22T10:16:40.995Z,65.28
2022-12-22T10:19:48.127Z,72.30
2022-12-22T10:22:55.385Z,70.55
2022-12-22T10:26:29.146Z,69.93
2022-12-22T10:29:37.226Z,65.80
2022-12-22T10:32:43.233Z,66.75
2022-12-22T10:35:53.329Z,69.50
2022-12-22T10:39:06.622Z,69.82
2022-12-22T10:42:15.117Z,68.43
2022-12-22T10:45:24.157Z,67.88
2022-12-22T10:48:36.069Z,71.75
2022-12-22T10:51:47.240Z,68.85
2022-12-22T10:54:52.733Z,66.27
2022-12-22T10:58:17.864Z,69.93
2022-12-22T11:01:32.632Z,73.60
2022-12-22T11:04:38.370Z,74.40
2022-12-22T11:07:47.212Z,74.10
2022-12-22T11:11:44.345Z,71.85
2022-12-22T11:15:18.551Z,75.70
2022-12-22T11:18:42.469Z,75.80
2022-12-22T11:21:59.009Z,85.53
2022-12-22T11:25:30.310Z,82.60
2022-12-22T11:29:03.234Z,90.38
2022-12-22T11:32:32.421Z,78.53
2022-12-22T11:35:43.668Z,81.45
2022-12-22T11:38:59.391Z,82.90
2022-12-22T11:42:23.928Z,85.38
2022-12-22T11:45:53.145Z,81.10
2022-12-22T11:49:06.418Z,83.88
2022-12-22T11:52:46.111Z,82.15
2022-12-22T11:56:12.657Z,84.32
2022-12-22T11:59:38.610Z,81.25
2022-12-22T12:03:22.766Z,79.60
2022-12-22T12:06:40.471Z,76.60
2022-12-22T12:10:14.367Z,82.15
2022-12-22T12:14:15.144Z,79.57
2022-12-22T12:17:20.860Z,74.47
2022-12-22T12:20:53.948Z,79.47
2022-12-22T12:24:28.674Z,77.65
2022-12-22T12:27:36.529Z,81.70
2022-12-22T12:30:59.797Z,84.80
2022-12-22T12:34:10.162Z,73.30
2022-12-22T12:37:26.556Z,77.35
2022-12-22T12:41:03.200Z,81.88
2022-12-22T12:44:14.366Z,73.63
2022-12-22T12:47:36.323Z,68.97
2022-12-22T12:54:22.387Z,78.88
2022-12-22T12:57:47.527Z,80.55
2022-12-22T13:00:58.599Z,78.70
2022-12-22T13:04:06.019Z,76.10
2022-12-22T13:07:12.024Z,83.40
2022-12-22T13:10:26.206Z,77.65
2022-12-22T13:13:39.348Z,79.07
2022-12-22T13:16:45.019Z,92.70
2022-12-22T13:19:51.917Z,78.20
2022-12-22T13:23:00.586Z,87.40
2022-12-22T13:26:10.745Z,90.97
2022-12-22T13:29:20.540Z,90.90
2022-12-22T13:32:36.403Z,94.03
2022-12-22T13:35:48.361Z,85.10
2022-12-22T13:39:04.828Z,88.18
2022-12-22T13:42:13.999Z,86.10
2022-12-22T13:45:39.052Z,85.68
2022-12-22T13:48:54.732Z,83.28
2022-12-22T13:52:05.167Z,81.72
2022-12-22T13:55:16.528Z,97.88
2022-12-22T13:58:28.157Z,86.82
2022-12-22T14:01:35.051Z,99.03
2022-12-22T14:04:43.211Z,89.43
2022-12-22T14:08:07.139Z,83.43
2022-12-22T14:11:13.272Z,89.15
2022-12-22T14:14:22.801Z,99.90
2022-12-22T14:17:30.762Z,93.20
2022-12-22T14:20:40.629Z,91.10
2022-12-22T14:23:47.176Z,84.65
2022-12-22T14:26:54.793Z,89.53
2022-12-22T14:30:04.005Z,82.35
2022-12-22T14:33:27.549Z,89.95
2022-12-22T14:36:41.126Z,73.13
2022-12-22T14:39:56.791Z,74.25
2022-12-22T14:43:06.568Z,78.88
2022-12-22T14:46:12.397Z,78.40
2022-12-22T14:49:20.204Z,72.78
2022-12-22T14:52:36.135Z,84.45
2022-12-22T14:55:42.707Z,86.57
2022-12-22T14:58:50.036Z,84.40
2022-12-22T15:02:22.533Z,86.93
2022-12-22T15:05:33.611Z,87.35
2022-12-22T15:08:44.864Z,81.80
2022-12-22T15:11:56.374Z,81.97
2022-12-22T15:15:02.943Z,76.40
2022-12-22T15:18:15.821Z,78.22
2022-12-22T15:21:23.282Z,76.68
2022-12-22T15:24:29.822Z,81.90
2022-12-22T15:27:35.703Z,84.78
2022-12-22T15:30:42.146Z,83.60
2022-12-22T15:33:48.413Z,83.95
2022-12-22T15:36:54.878Z,86.97
2022-12-22T15:40:00.841Z,86.97
2022-12-22T15:43:17.253Z,84.65
2022-12-22T15:46:33.807Z,82.22
2022-12-22T15:49:39.958Z,85.50
2022-12-22T15:52:53.602Z,86.68
2022-12-22T15:55:59.149Z,89.13
2022-12-22T15:59:04.968Z,88.07
2022-12-22T16:02:13.007Z,86.72
2022-12-22T16:05:18.862Z,99.03
2022-12-22T16:08:31.690Z,84.53
2022-12-22T16:11:39.293Z,86.20
2022-12-22T16:14:52.410Z,91.43
2022-12-22T16:18:02.717Z,91.13
2022-12-22T16:21:32.981Z,89.75
2022-12-22T16:24:41.364Z,89.78
2022-12-22T16:27:49.722Z,86.90
2022-12-22T16:30:56.133Z,93.20
2022-12-22T16:34:01.859Z,86.85
2022-12-22T16:37:07.588Z,96.82
2022-12-22T16:40:13.739Z,92.43
2022-12-22T16:46:59.293Z,94.60
2022-12-22T16:50:16.537Z,99.95
2022-12-22T16:53:22.458Z,96.78
2022-12-22T16:56:30.793Z,99.22
2022-12-22T16:59:36.448Z,96.78
2022-12-22T17:02:44.605Z,101.72
2022-12-22T17:05:54.468Z,96.13
2022-12-22T17:09:00.018Z,95.10
2022-12-22T17:12:07.562Z,91.32
2022-12-22T17:15:23.485Z,98.00
2022-12-22T17:18:31.600Z,88.28
2022-12-22T17:21:37.236Z,86.22
2022-12-22T17:24:42.915Z,86.45
2022-12-22T17:27:48.515Z,88.35
2022-12-22T17:30:54.761Z,95.05
2022-12-22T17:34:00.516Z,90.63
2022-12-22T17:37:22.404Z,83.90
2022-12-22T17:40:32.667Z,87.30
2022-12-22T17:43:38.264Z,105.00
2022-12-22T17:46:43.417Z,84.78
2022-12-22T17:49:48.973Z,86.78
2022-12-22T17:52:55.641Z,83.88
2022-12-22T17:56:08.250Z,79.43
2022-12-22T17:59:14.866Z,89.00
2022-12-22T18:02:23.005Z,88.90
2022-12-22T18:05:34.511Z,86.30
2022-12-22T18:08:40.123Z,75.60
2022-12-22T18:11:46.356Z,79.57
2022-12-22T18:14:53.204Z,81.57
2022-12-22T18:17:58.819Z,81.32
2022-12-22T18:21:06.437Z,84.65
2022-12-22T18:24:19.682Z,79.20
2022-12-22T18:27:25.432Z,84.83
2022-12-22T18:30:32.534Z,85.15
2022-12-22T18:33:38.863Z,79.55
2022-12-22T18:36:46.081Z,89.18
2022-12-22T18:39:52.292Z,84.85
2022-12-22T18:42:59.066Z,79.03
2022-12-22T18:46:04.803Z,86.80
2022-12-22T18:49:10.270Z,82.25
2022-12-22T18:52:22.136Z,89.55
2022-12-22T18:55:30.859Z,80.30
2022-12-22T18:58:36.912Z,84.45
2022-12-22T19:01:43.284Z,89.93
2022-12-22T19:04:51.103Z,80.97
2022-12-22T19:07:58.212Z,81.20
2022-12-22T19:11:10.850Z,86.88
2022-12-22T19:14:20.555Z,81.18
2022-12-22T19:17:29.381Z,81.15
2022-12-22T19:20:37.017Z,101.40
2022-12-22T19:23:45.745Z,99.43
2022-12-22T19:26:53.179Z,99.60
2022-12-22T19:30:04.647Z,82.60
2022-12-22T19:33:25.270Z,79.70
2022-12-22T19:36:34.267Z,82.63
2022-12-22T19:39:41.309Z,87.15
2022-12-22T19:42:51.232Z,74.80
2022-12-22T19:45:58.809Z,83.10
2022-12-22T19:49:06.169Z,89.70
2022-12-22T19:52:13.569Z,81.88
2022-12-22T19:55:21.597Z,84.88
2022-12-22T19:58:39.010Z,88.00
2022-12-22T20:01:45.751Z,77.65
2022-12-22T20:04:52.853Z,103.38
2022-12-22T20:08:01.698Z,77.85
2022-12-22T20:11:20.458Z,83.60
2022-12-22T20:14:26.812Z,83.00
2022-12-22T20:17:33.616Z,83.22
2022-12-22T20:20:41.762Z,103.93
2022-12-22T20:23:48.879Z,96.75
2022-12-22T20:26:55.406Z,95.32
2022-12-22T20:30:02.275Z,84.53
2022-12-22T20:33:10.410Z,98.13
2022-12-22T20:36:29.112Z,95.78
2022-12-22T20:39:35.624Z,92.28
2022-12-22T20:42:42.345Z,95.35
2022-12-22T20:45:52.866Z,89.63
2022-12-22T20:49:02.508Z,89.13
2022-12-22T20:52:16.172Z,98.88
2022-12-22T20:55:25.715Z,97.47
2022-12-22T20:58:36.057Z,89.82
2022-12-22T21:01:42.310Z,120.43
2022-12-22T21:04:49.706Z,89.25
2022-12-22T21:07:57.157Z,92.75
2022-12-22T21:11:03.426Z,100.63
2022-12-22T21:14:11.420Z,98.40
2022-12-22T21:17:20.120Z,85.30
2022-12-22T21:20:29.738Z,86.97
2022-12-22T21:23:35.950Z,90.55
2022-12-22T21:26:53.179Z,90.22
2022-12-22T21:29:59.509Z,90.30
2022-12-22T21:33:05.437Z,85.05
2022-12-22T21:36:30.587Z,79.72
2022-12-22T21:39:45.138Z,86.32
2022-12-22T21:42:53.424Z,91.53
2022-12-22T21:46:00.067Z,84.82
2022-12-22T21:49:07.031Z,85.43
2022-12-22T21:52:13.878Z,83.68
2022-12-22T21:55:26.325Z,87.35
2022-12-22T21:58:33.195Z,79.95
2022-12-22T22:01:41.753Z,84.35
2022-12-22T22:04:53.996Z,93.22
2022-12-22T22:08:03.138Z,86.90
2022-12-22T22:11:24.413Z,85.18
2022-12-22T22:14:31.711Z,95.75
2022-12-22T22:17:37.866Z,83.60
2022-12-22T22:20:45.005Z,81.07
2022-12-22T22:23:51.475Z,78.60
2022-12-22T22:26:58.654Z,83.45
2022-12-22T22:30:07.417Z,91.65
2022-12-22T22:33:13.237Z,82.63
2022-12-22T22:36:20.023Z,82.22
2022-12-22T22:39:26.272Z,86.40
2022-12-22T22:42:32.491Z,79.32
2022-12-22T22:45:40.982Z,87.28
2022-12-22T22:48:48.978Z,75.93
2022-12-22T22:51:55.889Z,86.90
2022-12-22T22:55:02.690Z,75.75
2022-12-22T22:58:11.892Z,79.85
2022-12-22T23:01:18.285Z,73.40
2022-12-22T23:04:23.963Z,77.28
2022-12-22T23:07:30.796Z,81.18
2022-12-22T23:10:41.559Z,80.38
2022-12-22T23:13:48.333Z,78.27
2022-12-22T23:17:00.695Z,78.50
2022-12-22T23:23:12.473Z,75.60
2022-12-22T23:26:17.955Z,77.47
2022-12-22T23:29:23.404Z,77.50
2022-12-22T23:32:29.387Z,82.57
2022-12-22T23:35:40.015Z,79.25
2022-12-22T23:38:46.474Z,75.75
2022-12-22T23:41:52.103Z,79.05
2022-12-22T23:44:58.294Z,85.07
2022-12-22T23:48:04.968Z,87.03
2022-12-22T23:51:12.497Z,75.22
2022-12-22T23:54:19.152Z,80.82
2022-12-22T23:57:25.464Z,89.28
